Time;durP1;ratioP1;P1;durP2;ratioP2;P2;SDS_P1;SDS_P2;PMS_P1;PMS_P2;Temp;Humidity;BMP_temperature;BMP_pressure;BME280_temperature;BME280_humidity;BME280_pressure;Samples;Min_cycle;Max_cycle;Signal;HPM_P1;HPM_P2
2021/10/31 00:01:38;;;;;;;51.65;39.03;;;6.70;99.90;;;;;;4951207;28;20448;-82
2021/10/31 00:04:05;;;;;;;48.33;39.42;;;6.70;99.90;;;;;;4949867;28;20441;-65
2021/10/31 00:06:32;;;;;;;52.88;40.42;;;6.70;99.90;;;;;;4949456;28;20074;-65
2021/10/31 00:08:59;;;;;;;49.65;38.05;;;6.70;99.90;;;;;;4942153;28;20056;-66
2021/10/31 00:11:26;;;;;;;55.45;38.05;;;6.70;99.90;;;;;;4966214;28;20105;-66
2021/10/31 00:13:53;;;;;;;56.03;38.60;;;6.70;99.90;;;;;;4954956;28;20738;-65
2021/10/31 00:16:20;;;;;;;57.55;41.80;;;6.70;99.90;;;;;;4980843;28;20166;-75
2021/10/31 00:18:47;;;;;;;49.85;39.50;;;6.70;99.90;;;;;;4970310;28;20054;-65
2021/10/31 00:21:14;;;;;;;46.58;36.97;;;6.70;99.90;;;;;;4961170;28;20756;-65
2021/10/31 00:23:41;;;;;;;52.67;40.00;;;6.70;99.90;;;;;;4982603;28;20050;-68
2021/10/31 00:26:08;;;;;;;57.40;40.78;;;6.70;99.90;;;;;;4969306;28;20471;-65
2021/10/31 00:28:35;;;;;;;54.67;41.80;;;6.70;99.90;;;;;;4971399;28;20400;-65
2021/10/31 00:31:03;;;;;;;59.78;40.28;;;6.70;99.90;;;;;;4988469;28;20110;-80
2021/10/31 00:33:31;;;;;;;49.35;37.03;;;6.80;99.90;;;;;;4961340;28;22422;-70
2021/10/31 00:35:58;;;;;;;56.00;38.20;;;6.70;99.90;;;;;;4950331;28;20453;-68
2021/10/31 00:38:25;;;;;;;45.80;37.33;;;6.70;99.90;;;;;;4962904;28;20043;-68
2021/10/31 00:40:52;;;;;;;49.10;38.60;;;6.70;99.90;;;;;;4950716;28;20497;-68
2021/10/31 00:43:19;;;;;;;45.22;35.63;;;6.70;99.90;;;;;;4964750;28;20082;-65
2021/10/31 00:45:46;;;;;;;47.33;35.67;;;6.70;99.90;;;;;;4951037;28;20078;-74
2021/10/31 00:48:13;;;;;;;44.85;36.67;;;6.70;99.90;;;;;;4948565;28;20650;-66
2021/10/31 00:50:42;;;;;;;47.22;36.47;;;6.70;99.90;;;;;;4956690;28;20050;-66
2021/10/31 00:53:10;;;;;;;50.42;40.15;;;6.70;99.90;;;;;;4968126;28;20054;-70
2021/10/31 00:55:40;;;;;;;41.13;34.30;;;6.80;99.90;;;;;;4971408;28;20062;-65
2021/10/31 00:58:10;;;;;;;45.38;35.00;;;6.70;99.90;;;;;;4970097;28;20043;-68
2021/10/31 01:00:38;;;;;;;46.95;36.05;;;6.70;99.90;;;;;;4949032;28;20500;-65
2021/10/31 01:03:05;;;;;;;40.95;35.15;;;6.70;99.90;;;;;;4951193;28;20047;-65
2021/10/31 01:05:40;;;;;;;51.92;36.38;;;6.70;99.90;;;;;;4950366;28;20078;-68
2021/10/31 01:08:34;;;;;;;42.53;32.80;;;6.60;99.90;;;;;;4950038;28;20160;-73
2021/10/31 01:11:45;;;;;;;52.38;37.78;;;6.60;99.90;;;;;;4964602;28;20043;-75
2021/10/31 01:14:42;;;;;;;51.00;39.13;;;6.60;99.90;;;;;;4945679;28;20107;-72
2021/10/31 01:17:37;;;;;;;56.58;38.85;;;6.60;99.90;;;;;;4965033;28;20421;-65
2021/10/31 01:20:16;;;;;;;47.63;36.83;;;6.60;99.90;;;;;;4972702;28;20054;-65
2021/10/31 01:22:51;;;;;;;45.80;34.15;;;6.60;99.90;;;;;;4968550;28;20398;-67
2021/10/31 01:25:37;;;;;;;44.25;34.17;;;6.60;99.90;;;;;;4968883;28;20093;-66
2021/10/31 01:28:33;;;;;;;48.10;37.97;;;6.70;99.90;;;;;;4983764;28;20055;-65
2021/10/31 01:31:06;;;;;;;48.65;36.50;;;6.70;99.90;;;;;;4972319;28;20660;-77
2021/10/31 01:33:47;;;;;;;45.55;34.33;;;6.70;99.90;;;;;;4967648;28;20751;-70
2021/10/31 01:36:29;;;;;;;44.95;35.13;;;6.70;99.90;;;;;;4967684;28;20186;-67
2021/10/31 01:39:17;;;;;;;46.65;34.92;;;6.70;99.90;;;;;;4970175;28;20134;-66
2021/10/31 01:42:07;;;;;;;52.28;37.42;;;6.70;99.90;;;;;;4968752;28;20050;-67
2021/10/31 01:44:56;;;;;;;48.10;38.03;;;6.70;99.90;;;;;;4967687;28;20097;-67
2021/10/31 01:47:44;;;;;;;59.35;38.63;;;6.70;99.90;;;;;;4964734;28;20043;-65
2021/10/31 01:50:14;;;;;;;51.13;39.97;;;6.70;99.90;;;;;;4943311;28;21135;-65
2021/10/31 01:52:50;;;;;;;48.38;35.85;;;6.70;99.90;;;;;;4956492;28;20895;-73
2021/10/31 01:55:24;;;;;;;52.17;40.25;;;6.70;99.90;;;;;;4954491;28;20373;-65
2021/10/31 01:57:56;;;;;;;52.30;38.72;;;6.80;99.90;;;;;;4956555;28;20055;-66
2021/10/31 02:00:24;;;;;;;50.45;38.10;;;6.80;99.90;;;;;;4962578;28;20063;-65
2021/10/31 02:02:51;;;;;;;49.85;38.55;;;6.90;99.90;;;;;;4958619;28;20043;-68
2021/10/31 02:05:26;;;;;;;46.50;36.05;;;6.90;99.90;;;;;;4962705;28;20062;-65
2021/10/31 02:08:01;;;;;;;47.88;36.55;;;6.90;99.90;;;;;;4960794;28;20043;-65
2021/10/31 02:10:31;;;;;;;54.80;36.70;;;6.90;99.90;;;;;;4958512;28;20032;-69
2021/10/31 02:13:00;;;;;;;49.95;38.03;;;6.90;99.90;;;;;;4960621;28;20480;-67
2021/10/31 02:15:27;;;;;;;52.60;39.45;;;6.90;99.90;;;;;;4951567;28;20074;-65
2021/10/31 02:17:56;;;;;;;46.53;36.60;;;7.00;99.90;;;;;;4954541;28;20397;-69
2021/10/31 02:20:24;;;;;;;47.53;36.63;;;7.00;99.90;;;;;;4952436;28;20071;-65
2021/10/31 02:22:56;;;;;;;49.15;33.92;;;7.00;99.90;;;;;;4958508;28;20094;-65
2021/10/31 02:25:24;;;;;;;50.80;38.17;;;7.00;99.90;;;;;;4955293;28;20062;-65
2021/10/31 02:27:51;;;;;;;48.97;35.95;;;7.10;99.90;;;;;;4959666;28;20077;-65
2021/10/31 02:30:19;;;;;;;48.08;35.83;;;7.10;99.90;;;;;;4956346;28;20071;-65
2021/10/31 02:32:47;;;;;;;50.92;36.38;;;7.10;99.90;;;;;;4953339;28;20042;-65
2021/10/31 02:35:15;;;;;;;52.88;36.65;;;7.10;99.90;;;;;;4948234;28;20039;-70
2021/10/31 02:37:42;;;;;;;44.13;34.38;;;7.10;99.90;;;;;;4958442;28;20090;-67
2021/10/31 02:40:12;;;;;;;47.33;37.85;;;7.10;99.90;;;;;;4967105;28;20165;-65
2021/10/31 02:42:40;;;;;;;54.25;37.47;;;7.10;99.90;;;;;;4957865;28;20413;-68
2021/10/31 02:45:08;;;;;;;52.25;37.53;;;7.10;99.90;;;;;;4954938;28;20055;-66
2021/10/31 02:47:41;;;;;;;51.60;35.53;;;7.20;99.90;;;;;;4955521;28;20043;-65
2021/10/31 02:50:14;;;;;;;53.47;37.30;;;7.20;99.90;;;;;;4960988;28;20086;-65
2021/10/31 02:52:49;;;;;;;48.90;36.80;;;7.20;99.90;;;;;;4953995;28;20051;-65
2021/10/31 02:55:21;;;;;;;46.90;36.75;;;7.20;99.90;;;;;;4961210;28;20039;-66
2021/10/31 02:58:01;;;;;;;46.65;34.05;;;7.20;99.90;;;;;;4966459;28;20054;-68
2021/10/31 03:00:30;;;;;;;47.55;35.85;;;7.20;99.90;;;;;;4963281;28;20047;-65
2021/10/31 03:02:58;;;;;;;49.75;38.08;;;7.20;99.90;;;;;;4957415;28;20116;-70
2021/10/31 03:05:26;;;;;;;48.45;37.03;;;7.20;99.90;;;;;;4963323;28;20101;-65
2021/10/31 03:07:55;;;;;;;45.17;35.97;;;7.30;99.90;;;;;;4964794;28;20086;-70
2021/10/31 03:10:22;;;;;;;50.83;36.83;;;7.30;99.90;;;;;;4969464;28;20043;-65
2021/10/31 03:12:50;;;;;;;50.83;34.80;;;7.30;99.90;;;;;;4964720;28;20035;-65
2021/10/31 03:15:18;;;;;;;47.55;34.30;;;7.30;99.90;;;;;;4963344;28;20077;-66
2021/10/31 03:17:45;;;;;;;53.65;38.47;;;7.20;99.90;;;;;;4956474;28;20081;-66
2021/10/31 03:20:12;;;;;;;47.90;35.67;;;7.30;99.90;;;;;;4956746;28;20119;-66
2021/10/31 03:22:39;;;;;;;51.20;36.17;;;7.30;99.90;;;;;;4960561;28;20557;-68
2021/10/31 03:25:06;;;;;;;45.45;35.25;;;7.30;99.90;;;;;;4958482;28;20099;-65
2021/10/31 03:27:33;;;;;;;51.35;35.67;;;7.30;99.90;;;;;;4966582;28;20113;-65
2021/10/31 03:30:00;;;;;;;45.05;33.72;;;7.30;99.90;;;;;;4959568;28;20044;-65
2021/10/31 03:32:28;;;;;;;43.40;34.15;;;7.30;99.90;;;;;;4968888;28;20559;-68
2021/10/31 03:34:55;;;;;;;43.35;33.97;;;7.30;99.90;;;;;;4958216;28;20039;-68
2021/10/31 03:37:22;;;;;;;46.33;35.28;;;7.30;99.90;;;;;;4956913;28;20063;-65
2021/10/31 03:39:49;;;;;;;44.40;33.28;;;7.20;99.90;;;;;;4961372;28;20043;-65
2021/10/31 03:42:16;;;;;;;42.05;32.33;;;7.20;99.90;;;;;;4968796;28;20047;-68
2021/10/31 03:44:50;;;;;;;47.92;34.08;;;7.20;99.90;;;;;;4962169;28;20038;-68
2021/10/31 03:47:19;;;;;;;45.20;33.78;;;7.20;99.90;;;;;;4939902;28;20051;-65
2021/10/31 03:49:46;;;;;;;49.75;32.22;;;7.10;99.90;;;;;;4954577;28;20047;-65
2021/10/31 03:52:13;;;;;;;45.20;34.75;;;7.10;99.90;;;;;;4957984;28;20105;-66
2021/10/31 03:54:41;;;;;;;50.70;34.58;;;7.10;99.90;;;;;;4958076;28;20054;-65
2021/10/31 03:57:08;;;;;;;43.53;34.28;;;7.10;99.90;;;;;;4959325;28;20038;-65
2021/10/31 03:59:35;;;;;;;47.45;37.22;;;7.10;99.90;;;;;;4966121;28;20047;-67
2021/10/31 04:02:03;;;;;;;49.95;34.38;;;7.10;99.90;;;;;;4959357;28;20039;-65
2021/10/31 04:04:31;;;;;;;46.25;33.92;;;7.00;99.90;;;;;;4958536;28;20129;-65
2021/10/31 04:06:58;;;;;;;47.95;33.05;;;7.00;99.90;;;;;;4962082;28;20504;-65
2021/10/31 04:09:26;;;;;;;48.75;35.70;;;7.00;99.90;;;;;;4957564;28;20043;-65
2021/10/31 04:11:53;;;;;;;46.17;35.75;;;7.00;99.90;;;;;;4959205;28;20531;-65
2021/10/31 04:14:20;;;;;;;47.53;35.85;;;7.00;99.90;;;;;;4962807;28;20047;-65
2021/10/31 04:16:47;;;;;;;48.38;36.80;;;7.10;99.90;;;;;;4959271;28;20065;-65
2021/10/31 04:19:18;;;;;;;50.15;37.05;;;7.10;99.90;;;;;;4952939;28;20126;-68
2021/10/31 04:21:45;;;;;;;44.88;35.50;;;7.10;99.90;;;;;;4965823;28;20070;-65
2021/10/31 04:24:12;;;;;;;46.40;36.40;;;7.10;99.90;;;;;;4960367;28;20054;-67
2021/10/31 04:26:39;;;;;;;48.28;37.05;;;7.10;99.90;;;;;;4960774;28;20085;-65
2021/10/31 04:29:06;;;;;;;48.60;36.33;;;7.10;99.90;;;;;;4960640;28;20501;-68
2021/10/31 04:31:33;;;;;;;53.25;37.83;;;7.10;99.90;;;;;;4962734;28;20106;-65
2021/10/31 04:34:00;;;;;;;48.45;37.08;;;7.20;99.90;;;;;;4954214;28;20063;-65
2021/10/31 04:36:27;;;;;;;47.22;38.20;;;7.20;99.90;;;;;;4955440;28;20151;-65
2021/10/31 04:38:56;;;;;;;56.08;39.03;;;7.20;99.90;;;;;;4956748;28;20045;-65
2021/10/31 04:41:25;;;;;;;49.75;38.28;;;7.30;99.90;;;;;;4958819;28;20130;-68
2021/10/31 04:43:52;;;;;;;49.40;40.42;;;7.20;99.90;;;;;;4955724;28;20051;-65
2021/10/31 04:46:19;;;;;;;61.00;39.90;;;7.30;99.90;;;;;;4951152;28;20042;-65
2021/10/31 04:48:46;;;;;;;53.53;39.85;;;7.30;99.90;;;;;;4952154;28;20062;-70
2021/10/31 04:51:13;;;;;;;52.35;39.35;;;7.40;99.90;;;;;;4955644;28;20644;-65
2021/10/31 04:53:40;;;;;;;52.20;38.28;;;7.40;99.90;;;;;;4959908;28;20070;-65
2021/10/31 04:56:08;;;;;;;56.30;40.78;;;7.50;99.90;;;;;;4956941;28;20047;-65
2021/10/31 04:58:35;;;;;;;55.70;38.20;;;7.60;99.90;;;;;;4968271;28;20074;-69
2021/10/31 05:01:03;;;;;;;55.72;43.47;;;7.60;99.90;;;;;;4959427;28;20074;-68
2021/10/31 05:03:31;;;;;;;55.28;38.10;;;7.60;99.90;;;;;;4952568;28;20133;-76
2021/10/31 05:05:59;;;;;;;57.28;42.50;;;7.60;99.90;;;;;;4954837;28;20548;-65
2021/10/31 05:08:26;;;;;;;53.15;41.67;;;7.60;99.90;;;;;;4956400;28;20433;-68
2021/10/31 05:10:53;;;;;;;54.25;39.85;;;7.60;99.90;;;;;;4956709;28;20548;-65
2021/10/31 05:13:20;;;;;;;53.85;40.08;;;7.60;99.90;;;;;;4956787;28;20030;-70
2021/10/31 05:15:48;;;;;;;51.47;38.83;;;7.60;99.90;;;;;;4955384;28;20087;-65
2021/10/31 05:18:16;;;;;;;53.28;39.08;;;7.60;99.90;;;;;;4950023;28;20126;-65
2021/10/31 05:20:43;;;;;;;53.38;39.30;;;7.70;99.90;;;;;;4965454;28;20088;-70
2021/10/31 05:23:09;;;;;;;54.20;40.25;;;7.80;99.90;;;;;;4950209;28;20095;-70
2021/10/31 05:25:36;;;;;;;49.20;37.17;;;7.80;99.90;;;;;;4954090;28;20141;-66
2021/10/31 05:28:04;;;;;;;52.78;38.63;;;7.80;99.90;;;;;;4945419;28;20114;-65
2021/10/31 05:30:31;;;;;;;58.45;41.95;;;7.80;99.90;;;;;;4890402;28;23054;-68
2021/10/31 05:32:58;;;;;;;51.22;39.78;;;7.70;99.90;;;;;;4878590;28;20127;-77
2021/10/31 05:35:25;;;;;;;57.20;39.58;;;7.70;99.90;;;;;;4876054;28;20710;-71
2021/10/31 05:38:00;;;;;;;52.17;39.33;;;7.70;99.90;;;;;;4934092;28;20074;-65
2021/10/31 05:40:28;;;;;;;59.25;41.72;;;7.70;99.90;;;;;;4911106;28;20695;-83
2021/10/31 05:42:55;;;;;;;54.95;39.95;;;7.80;99.90;;;;;;4920879;28;20046;-67
2021/10/31 05:45:23;;;;;;;58.15;39.45;;;7.90;99.90;;;;;;4946794;28;20096;-71
2021/10/31 05:47:52;;;;;;;53.22;41.55;;;7.90;99.90;;;;;;4940323;28;20451;-65
2021/10/31 05:50:19;;;;;;;62.25;44.33;;;7.90;99.90;;;;;;4937269;28;20065;-68
2021/10/31 05:52:47;;;;;;;60.38;45.13;;;8.00;99.90;;;;;;4936773;28;20488;-72
2021/10/31 05:55:16;;;;;;;61.88;41.58;;;8.00;99.90;;;;;;4937048;28;20046;-65
2021/10/31 05:57:44;;;;;;;64.15;43.65;;;8.00;99.90;;;;;;4951881;28;20542;-73
2021/10/31 06:00:12;;;;;;;55.58;41.30;;;8.00;99.90;;;;;;4940976;28;20988;-65
2021/10/31 06:02:44;;;;;;;62.72;41.67;;;8.10;99.90;;;;;;4930489;28;20763;-73
2021/10/31 06:05:13;;;;;;;54.97;42.37;;;8.00;99.90;;;;;;4936271;28;20050;-80
2021/10/31 06:07:41;;;;;;;69.13;44.88;;;8.10;99.90;;;;;;4933800;28;20065;-67
2021/10/31 06:10:10;;;;;;;59.38;44.30;;;8.10;99.90;;;;;;4932700;28;20055;-65
2021/10/31 06:12:44;;;;;;;62.70;45.15;;;8.20;99.90;;;;;;4934651;28;20054;-67
2021/10/31 06:15:13;;;;;;;62.22;42.38;;;8.20;99.90;;;;;;4941516;28;20047;-68
2021/10/31 06:17:40;;;;;;;66.05;47.38;;;8.20;99.90;;;;;;4941057;28;20057;-65
2021/10/31 06:20:10;;;;;;;67.63;45.85;;;8.20;99.90;;;;;;4933376;28;20216;-66
2021/10/31 06:22:37;;;;;;;59.33;43.65;;;8.20;99.90;;;;;;4932601;28;21610;-65
2021/10/31 06:25:06;;;;;;;67.57;46.65;;;8.30;99.90;;;;;;4945258;28;20164;-67
2021/10/31 06:27:33;;;;;;;59.28;43.85;;;8.40;99.90;;;;;;4931957;28;20055;-67
2021/10/31 06:30:00;;;;;;;57.92;44.30;;;8.40;99.90;;;;;;4937157;28;20046;-66
2021/10/31 06:32:27;;;;;;;59.10;44.65;;;8.50;99.90;;;;;;4933579;28;20070;-65
2021/10/31 06:34:55;;;;;;;70.20;52.30;;;8.60;99.90;;;;;;4932042;28;20118;-65
2021/10/31 06:37:22;;;;;;;58.45;44.95;;;8.60;99.90;;;;;;4935030;28;20055;-80
2021/10/31 06:39:49;;;;;;;56.35;43.60;;;8.60;99.90;;;;;;4931578;28;20513;-83
2021/10/31 06:42:16;;;;;;;60.00;47.40;;;8.70;99.90;;;;;;4929746;28;20047;-69
2021/10/31 06:44:43;;;;;;;54.22;42.60;;;8.70;99.90;;;;;;4932743;28;20057;-65
2021/10/31 06:47:10;;;;;;;60.38;43.90;;;8.70;99.90;;;;;;4928557;28;21419;-66
2021/10/31 06:49:40;;;;;;;55.35;44.15;;;8.80;99.90;;;;;;4931768;28;20073;-65
2021/10/31 06:52:07;;;;;;;57.28;42.15;;;8.80;99.90;;;;;;4932515;28;20528;-70
2021/10/31 06:54:34;;;;;;;59.85;44.30;;;8.80;99.90;;;;;;4929450;28;20062;-66
2021/10/31 06:57:01;;;;;;;58.97;44.30;;;8.80;99.90;;;;;;4934353;28;20162;-66
2021/10/31 06:59:28;;;;;;;54.90;41.08;;;8.90;99.90;;;;;;4930842;28;20148;-65
2021/10/31 07:01:55;;;;;;;56.08;43.10;;;8.90;99.90;;;;;;4928962;28;20154;-65
2021/10/31 07:04:22;;;;;;;57.45;44.25;;;9.00;99.90;;;;;;4933231;28;20058;-66
2021/10/31 07:06:49;;;;;;;55.92;42.13;;;9.00;99.90;;;;;;4932519;28;20050;-65
2021/10/31 07:09:16;;;;;;;61.92;41.45;;;9.00;99.90;;;;;;4933385;28;20060;-65
2021/10/31 07:11:43;;;;;;;53.53;41.65;;;9.10;99.90;;;;;;4935081;28;20058;-65
2021/10/31 07:14:10;;;;;;;58.22;42.92;;;9.10;99.90;;;;;;4934440;28;21570;-75
2021/10/31 07:16:38;;;;;;;55.42;42.13;;;9.20;99.90;;;;;;4935514;28;20453;-79
2021/10/31 07:19:05;;;;;;;50.78;41.33;;;9.30;99.90;;;;;;4936155;28;20077;-67
2021/10/31 07:21:32;;;;;;;57.67;41.47;;;9.30;99.90;;;;;;4938215;28;20125;-66
2021/10/31 07:23:59;;;;;;;53.30;42.28;;;9.40;99.90;;;;;;4936641;28;21835;-65
2021/10/31 07:26:25;;;;;;;57.00;41.53;;;9.40;99.90;;;;;;4922336;28;20083;-65
2021/10/31 07:28:52;;;;;;;54.33;41.85;;;9.40;99.90;;;;;;4942862;28;20061;-65
2021/10/31 07:31:20;;;;;;;53.58;38.95;;;9.50;99.90;;;;;;4943753;28;20051;-65
2021/10/31 07:33:48;;;;;;;52.80;37.30;;;9.50;99.90;;;;;;4928125;28;20058;-69
2021/10/31 07:36:15;;;;;;;48.90;40.72;;;9.60;99.90;;;;;;4939604;28;20058;-66
2021/10/31 07:38:43;;;;;;;49.47;38.55;;;9.60;99.90;;;;;;4934545;28;20097;-65
2021/10/31 07:41:11;;;;;;;51.90;39.30;;;9.70;99.90;;;;;;4934320;28;20143;-78
2021/10/31 07:43:38;;;;;;;50.65;39.70;;;9.70;99.90;;;;;;4940980;28;20141;-65
2021/10/31 07:46:05;;;;;;;50.03;40.03;;;9.80;99.90;;;;;;4939596;28;20065;-78
2021/10/31 07:48:32;;;;;;;50.40;39.70;;;9.90;99.90;;;;;;4939973;28;20054;-68
2021/10/31 07:51:00;;;;;;;52.55;38.55;;;9.90;99.90;;;;;;4948885;28;20050;-85
2021/10/31 07:53:27;;;;;;;47.72;37.78;;;9.90;99.90;;;;;;4937007;28;20050;-67
2021/10/31 07:55:55;;;;;;;56.97;42.17;;;9.90;99.90;;;;;;4940949;28;20082;-69
2021/10/31 07:58:25;;;;;;;52.60;38.15;;;10.00;99.90;;;;;;4937979;28;20090;-65
2021/10/31 08:00:52;;;;;;;46.77;37.70;;;10.00;99.90;;;;;;4919848;28;20090;-66
2021/10/31 08:03:19;;;;;;;53.88;39.00;;;10.10;99.90;;;;;;4919649;28;22165;-70
2021/10/31 08:05:48;;;;;;;43.13;34.65;;;10.10;99.90;;;;;;4918827;28;20048;-65
2021/10/31 08:08:17;;;;;;;49.20;39.17;;;10.20;99.90;;;;;;4936062;28;20081;-80
2021/10/31 08:10:46;;;;;;;56.47;40.72;;;10.20;99.90;;;;;;4942258;28;20518;-65
2021/10/31 08:13:25;;;;;;;49.78;37.67;;;10.20;99.90;;;;;;4938150;28;20063;-65
2021/10/31 08:15:54;;;;;;;50.97;38.17;;;10.30;99.90;;;;;;4942078;28;22479;-68
2021/10/31 08:18:21;;;;;;;47.80;37.75;;;10.40;99.90;;;;;;4937230;28;20058;-79
2021/10/31 08:20:48;;;;;;;54.75;37.67;;;10.40;99.90;;;;;;4939752;28;20495;-78
2021/10/31 08:23:16;;;;;;;47.33;37.83;;;10.40;99.90;;;;;;4943766;28;20925;-78
2021/10/31 08:25:44;;;;;;;48.08;37.10;;;10.50;99.90;;;;;;4940823;28;20082;-65
2021/10/31 08:28:13;;;;;;;46.67;37.05;;;10.50;99.90;;;;;;4936843;28;20084;-68
2021/10/31 08:30:44;;;;;;;42.75;35.42;;;10.60;99.90;;;;;;4942425;28;20484;-65
2021/10/31 08:33:35;;;;;;;46.67;36.53;;;10.70;99.90;;;;;;4939506;28;20078;-71
2021/10/31 08:36:04;;;;;;;44.08;35.53;;;10.80;99.90;;;;;;4940452;28;20404;-78
2021/10/31 08:38:31;;;;;;;49.60;37.55;;;10.80;99.90;;;;;;4939089;28;20063;-69
2021/10/31 08:40:59;;;;;;;46.90;36.47;;;10.90;99.90;;;;;;4917857;28;20552;-78
2021/10/31 08:43:27;;;;;;;47.05;35.88;;;10.90;99.90;;;;;;4926134;28;20046;-66
2021/10/31 08:45:55;;;;;;;45.42;35.80;;;11.00;99.90;;;;;;4945003;28;20515;-69
2021/10/31 08:48:22;;;;;;;48.22;35.83;;;11.00;99.90;;;;;;4928082;28;20054;-70
2021/10/31 08:50:49;;;;;;;43.20;35.42;;;11.00;99.90;;;;;;4925606;28;20146;-65
2021/10/31 08:53:17;;;;;;;46.25;35.30;;;11.00;99.90;;;;;;4925641;28;20409;-66
2021/10/31 08:55:45;;;;;;;42.95;34.15;;;11.00;99.90;;;;;;4926170;28;20217;-68
2021/10/31 08:58:13;;;;;;;47.35;37.28;;;11.10;99.90;;;;;;4921419;28;20047;-67
2021/10/31 09:00:41;;;;;;;46.20;35.78;;;11.00;99.90;;;;;;4929121;28;20054;-77
2021/10/31 09:03:09;;;;;;;47.58;33.95;;;11.00;99.90;;;;;;4931496;28;20054;-70
2021/10/31 09:05:37;;;;;;;45.28;37.08;;;11.10;99.90;;;;;;4921700;28;20074;-72
2021/10/31 09:08:09;;;;;;;42.28;33.97;;;11.10;99.90;;;;;;4917824;28;20059;-69
2021/10/31 09:10:38;;;;;;;45.55;35.20;;;11.10;99.90;;;;;;4916007;28;20097;-79
2021/10/31 09:13:05;;;;;;;47.20;36.13;;;11.10;99.90;;;;;;4921775;28;20095;-66
2021/10/31 09:15:33;;;;;;;41.70;34.80;;;11.20;99.90;;;;;;4932011;28;20481;-67
2021/10/31 09:18:00;;;;;;;47.25;35.13;;;11.20;99.90;;;;;;4934467;28;20050;-69
2021/10/31 09:20:27;;;;;;;42.55;36.28;;;11.30;99.90;;;;;;4934779;28;20120;-70
2021/10/31 09:22:56;;;;;;;42.90;34.45;;;11.30;99.90;;;;;;4941237;28;20047;-77
2021/10/31 09:25:27;;;;;;;44.20;32.92;;;11.40;99.90;;;;;;4946616;28;20096;-65
2021/10/31 09:27:54;;;;;;;40.33;31.92;;;11.50;99.90;;;;;;4923397;28;20877;-79
2021/10/31 09:30:23;;;;;;;42.45;33.15;;;11.50;99.90;;;;;;4928513;28;20062;-69
2021/10/31 09:32:50;;;;;;;42.83;32.88;;;11.50;99.90;;;;;;4924518;28;20159;-67
2021/10/31 09:35:23;;;;;;;41.20;33.35;;;11.50;99.90;;;;;;4944712;28;20078;-65
2021/10/31 09:37:57;;;;;;;38.67;32.13;;;11.40;99.90;;;;;;4931175;28;20424;-65
2021/10/31 09:40:25;;;;;;;46.63;34.03;;;11.40;99.90;;;;;;4934440;28;20046;-80
2021/10/31 09:42:54;;;;;;;46.10;36.10;;;11.40;99.90;;;;;;4933942;28;20456;-75
2021/10/31 09:45:23;;;;;;;38.05;33.30;;;11.40;99.90;;;;;;4929274;28;20125;-81
2021/10/31 09:48:11;;;;;;;41.80;33.83;;;11.50;99.90;;;;;;4933143;28;20054;-66
2021/10/31 09:50:41;;;;;;;42.92;34.35;;;11.50;99.90;;;;;;4907084;28;20702;-69
2021/10/31 09:53:09;;;;;;;;;;;11.50;99.90;;;;;;4910744;28;20051;-77
2021/10/31 09:55:38;;;;;;;46.33;34.70;;;11.50;99.90;;;;;;4928239;28;20371;-66
2021/10/31 09:58:08;;;;;;;45.23;34.43;;;11.50;99.90;;;;;;4933801;28;20082;-69
2021/10/31 10:00:42;;;;;;;43.08;33.38;;;11.50;99.90;;;;;;4938396;28;20078;-65
2021/10/31 10:03:23;;;;;;;49.20;34.08;;;11.60;99.90;;;;;;4933966;28;20166;-78
2021/10/31 10:06:10;;;;;;;48.00;33.28;;;11.60;99.90;;;;;;4929324;28;20113;-74
2021/10/31 10:08:38;;;;;;;46.90;34.63;;;11.50;99.90;;;;;;4947125;28;20112;-70
2021/10/31 10:11:17;;;;;;;42.92;31.45;;;11.50;99.90;;;;;;4911498;28;20154;-68
2021/10/31 10:13:44;;;;;;;40.38;31.75;;;11.60;99.90;;;;;;4916058;28;20141;-66
2021/10/31 10:16:27;;;;;;;43.17;35.78;;;11.60;99.90;;;;;;4950093;28;20576;-67
2021/10/31 10:18:55;;;;;;;47.25;36.63;;;11.50;99.90;;;;;;4933671;28;20082;-79
2021/10/31 10:21:27;;;;;;;46.50;34.33;;;11.50;99.90;;;;;;4935063;28;20042;-76
2021/10/31 10:24:09;;;;;;;45.60;35.90;;;11.50;99.90;;;;;;4939636;28;20075;-65
2021/10/31 10:26:42;;;;;;;40.20;32.97;;;11.50;99.90;;;;;;4936372;28;20050;-76
2021/10/31 10:29:16;;;;;;;42.97;35.15;;;11.50;99.90;;;;;;4937025;28;20122;-65
2021/10/31 10:32:04;;;;;;;42.30;35.42;;;11.50;99.90;;;;;;4933764;28;20070;-66
2021/10/31 10:34:41;;;;;;;50.28;32.20;;;11.50;99.90;;;;;;4941020;28;21208;-66
2021/10/31 10:37:19;;;;;;;39.40;33.50;;;11.50;99.90;;;;;;4914467;28;20050;-67
2021/10/31 10:39:52;;;;;;;43.25;34.47;;;11.50;99.90;;;;;;4918481;28;20051;-71
2021/10/31 10:42:25;;;;;;;49.67;35.42;;;11.50;99.90;;;;;;4931837;28;20220;-67
2021/10/31 10:45:04;;;;;;;45.10;35.10;;;11.50;99.90;;;;;;4929920;28;21755;-65
2021/10/31 10:47:32;;;;;;;42.03;33.45;;;11.60;99.90;;;;;;4930043;28;20050;-66
2021/10/31 10:50:00;;;;;;;42.45;33.90;;;11.50;99.90;;;;;;4932555;28;20516;-64
2021/10/31 10:52:34;;;;;;;42.92;35.08;;;11.50;99.90;;;;;;4924989;28;20172;-76
2021/10/31 10:55:16;;;;;;;43.65;32.10;;;11.50;99.90;;;;;;4931773;28;20085;-64
2021/10/31 10:57:46;;;;;;;43.63;33.50;;;11.60;99.90;;;;;;4932333;28;20132;-67
2021/10/31 11:00:18;;;;;;;47.08;35.65;;;11.60;99.90;;;;;;4933394;28;20081;-68
2021/10/31 11:02:58;;;;;;;45.55;34.42;;;11.60;99.90;;;;;;4933602;28;20098;-73
2021/10/31 11:05:28;;;;;;;46.90;35.53;;;11.70;99.90;;;;;;4932218;28;21357;-67
2021/10/31 11:07:55;;;;;;;42.78;33.35;;;11.70;99.90;;;;;;4936455;28;20090;-67
2021/10/31 11:10:24;;;;;;;45.63;35.58;;;11.70;99.90;;;;;;4931372;28;20512;-72
2021/10/31 11:12:53;;;;;;;44.40;33.47;;;11.70;99.90;;;;;;4921720;28;20078;-67
2021/10/31 11:15:23;;;;;;;39.67;33.03;;;11.70;99.90;;;;;;4941759;28;20384;-78
2021/10/31 11:17:53;;;;;;;38.88;34.13;;;11.60;99.90;;;;;;4935268;28;20053;-70
2021/10/31 11:20:26;;;;;;;40.70;34.10;;;11.60;99.90;;;;;;4933621;28;20137;-68
2021/10/31 11:22:57;;;;;;;42.15;31.80;;;11.70;99.90;;;;;;4936899;28;20054;-71
2021/10/31 11:25:25;;;;;;;;;;;11.70;99.90;;;;;;4934438;28;20117;-69
2021/10/31 11:27:54;;;;;;;44.92;32.92;;;11.80;99.90;;;;;;4936200;28;19991;-64
2021/10/31 11:30:23;;;;;;;43.83;34.25;;;11.80;99.90;;;;;;4932394;28;20129;-67
2021/10/31 11:32:51;;;;;;;47.20;34.38;;;11.80;99.90;;;;;;4943509;28;20235;-81
2021/10/31 11:35:19;;;;;;;41.15;32.35;;;11.90;99.90;;;;;;4937754;28;20145;-68
2021/10/31 11:38:13;;;;;;;45.25;33.38;;;11.90;99.90;;;;;;4929640;28;20608;-74
2021/10/31 11:40:41;;;;;;;40.77;31.87;;;11.90;99.90;;;;;;4932747;28;20109;-80
2021/10/31 11:43:15;;;;;;;40.38;32.50;;;12.00;99.90;;;;;;4937883;28;20874;-65
2021/10/31 11:45:45;;;;;;;40.63;31.38;;;11.90;99.90;;;;;;4938194;28;20141;-67
2021/10/31 11:48:18;;;;;;;41.75;35.50;;;11.90;99.90;;;;;;4934546;28;20054;-79
2021/10/31 11:51:03;;;;;;;46.20;34.00;;;11.90;99.90;;;;;;4938415;28;22025;-76
2021/10/31 11:53:34;;;;;;;49.60;33.85;;;11.80;99.90;;;;;;4940824;28;20787;-73
2021/10/31 11:56:21;;;;;;;37.35;31.55;;;11.80;99.90;;;;;;4933645;28;20057;-81
2021/10/31 11:58:51;;;;;;;46.00;32.95;;;11.80;99.90;;;;;;4929396;28;20149;-68
2021/10/31 12:01:21;;;;;;;46.63;37.30;;;11.70;99.90;;;;;;4930434;28;20050;-79
2021/10/31 12:03:56;;;;;;;42.65;35.42;;;11.70;99.90;;;;;;4935385;28;20602;-80
2021/10/31 12:06:24;;;;;;;46.83;35.35;;;11.70;99.90;;;;;;4934850;28;20078;-65
2021/10/31 12:08:59;;;;;;;42.47;34.38;;;11.70;99.90;;;;;;4933063;28;21436;-65
2021/10/31 12:11:29;;;;;;;45.38;35.30;;;11.60;99.90;;;;;;4924682;28;20508;-77
2021/10/31 12:14:14;;;;;;;41.95;34.90;;;11.60;99.90;;;;;;4931201;28;20058;-66
2021/10/31 12:16:53;;;;;;;47.20;35.10;;;11.60;99.90;;;;;;4933262;28;20046;-72
2021/10/31 12:19:41;;;;;;;43.92;37.05;;;11.70;99.90;;;;;;4935106;28;21287;-67
2021/10/31 12:22:11;;;;;;;41.95;34.05;;;11.60;99.90;;;;;;4934110;28;20085;-65
2021/10/31 12:24:48;;;;;;;42.58;34.72;;;11.60;99.90;;;;;;4935691;28;20218;-67
2021/10/31 12:27:21;;;;;;;42.58;33.38;;;11.60;99.90;;;;;;4938978;28;20043;-73
2021/10/31 12:29:59;;;;;;;46.88;36.83;;;11.60;99.90;;;;;;4939415;28;20075;-68
2021/10/31 12:32:30;;;;;;;46.88;33.38;;;11.60;99.90;;;;;;4940782;28;21097;-65
2021/10/31 12:34:57;;;;;;;46.38;34.90;;;11.60;99.90;;;;;;4938050;28;20054;-65
2021/10/31 12:37:28;;;;;;;40.22;34.10;;;11.60;99.90;;;;;;4936258;28;20051;-65
2021/10/31 12:40:16;;;;;;;40.92;34.28;;;11.70;99.90;;;;;;4930448;28;20077;-65
2021/10/31 12:42:46;;;;;;;44.78;36.55;;;11.70;99.90;;;;;;4929960;28;20464;-73
2021/10/31 12:45:16;;;;;;;40.50;33.60;;;11.70;99.90;;;;;;4926682;28;20756;-67
2021/10/31 12:47:54;;;;;;;41.97;34.72;;;11.70;99.90;;;;;;4925408;28;20064;-64
2021/10/31 12:50:26;;;;;;;45.05;36.30;;;11.60;99.90;;;;;;4922640;28;20051;-64